sensor_id;sensor_type;location;lat;lon;timestamp;pressure;altitude;pressure_sealevel;temperature;humidity
65010;BME280;51556;50.002;22.014;2023-04-29T00:01:00;99210.67;;;9.51;47.63
65010;BME280;51556;50.002;22.014;2023-04-29T00:03:27;99207.72;;;9.42;48.01
65010;BME280;51556;50.002;22.014;2023-04-29T00:05:54;99209.96;;;9.35;47.89
65010;BME280;51556;50.002;22.014;2023-04-29T00:08:19;99212.64;;;9.27;48.35
65010;BME280;51556;50.002;22.014;2023-04-29T00:10:47;99208.47;;;9.25;48.16
65010;BME280;51556;50.002;22.014;2023-04-29T00:13:12;99208.85;;;9.24;48.58
65010;BME280;51556;50.002;22.014;2023-04-29T00:15:39;99212.16;;;9.25;48.24
65010;BME280;51556;50.002;22.014;2023-04-29T00:18:05;99210.84;;;9.21;48.49
65010;BME280;51556;50.002;22.014;2023-04-29T00:20:30;99213.46;;;9.14;48.97
65010;BME280;51556;50.002;22.014;2023-04-29T00:22:56;99212.23;;;9.05;49.61
65010;BME280;51556;50.002;22.014;2023-04-29T00:25:21;99208.91;;;8.96;50.20
65010;BME280;51556;50.002;22.014;2023-04-29T00:27:46;99208.23;;;8.88;50.26
65010;BME280;51556;50.002;22.014;2023-04-29T00:30:12;99208.19;;;8.82;50.67
65010;BME280;51556;50.002;22.014;2023-04-29T00:32:37;99205.71;;;8.74;50.60
65010;BME280;51556;50.002;22.014;2023-04-29T00:35:02;99207.80;;;8.66;51.27
65010;BME280;51556;50.002;22.014;2023-04-29T00:37:28;99206.35;;;8.59;50.70
65010;BME280;51556;50.002;22.014;2023-04-29T00:39:53;99201.82;;;8.50;51.17
65010;BME280;51556;50.002;22.014;2023-04-29T00:42:19;99205.20;;;8.48;51.11
65010;BME280;51556;50.002;22.014;2023-04-29T00:44:44;99202.42;;;8.45;51.77
65010;BME280;51556;50.002;22.014;2023-04-29T00:47:10;99198.09;;;8.43;51.12
65010;BME280;51556;50.002;22.014;2023-04-29T00:49:38;99199.39;;;8.39;51.72
65010;BME280;51556;50.002;22.014;2023-04-29T00:52:04;99201.29;;;8.30;52.50
65010;BME280;51556;50.002;22.014;2023-04-29T00:54:32;99197.41;;;8.21;52.12
65010;BME280;51556;50.002;22.014;2023-04-29T00:56:57;99197.01;;;8.16;52.71
65010;BME280;51556;50.002;22.014;2023-04-29T00:59:23;99194.31;;;8.10;52.74
65010;BME280;51556;50.002;22.014;2023-04-29T01:01:57;99194.42;;;8.03;53.25
65010;BME280;51556;50.002;22.014;2023-04-29T01:04:24;99192.23;;;7.98;53.35
65010;BME280;51556;50.002;22.014;2023-04-29T01:12:17;99192.09;;;7.86;53.88
65010;BME280;51556;50.002;22.014;2023-04-29T01:14:47;99192.89;;;7.80;54.19
65010;BME280;51556;50.002;22.014;2023-04-29T01:17:16;99191.95;;;7.76;54.48
65010;BME280;51556;50.002;22.014;2023-04-29T01:19:46;99193.09;;;7.69;54.26
65010;BME280;51556;50.002;22.014;2023-04-29T01:22:12;99191.61;;;7.63;54.85
65010;BME280;51556;50.002;22.014;2023-04-29T01:24:42;99196.08;;;7.58;54.88
65010;BME280;51556;50.002;22.014;2023-04-29T01:27:13;99194.60;;;7.51;55.66
65010;BME280;51556;50.002;22.014;2023-04-29T01:29:46;99191.73;;;7.44;55.53
65010;BME280;51556;50.002;22.014;2023-04-29T01:32:16;99191.50;;;7.37;55.35
65010;BME280;51556;50.002;22.014;2023-04-29T01:35:16;99189.65;;;7.33;55.68
65010;BME280;51556;50.002;22.014;2023-04-29T01:37:55;99188.71;;;7.25;55.88
65010;BME280;51556;50.002;22.014;2023-04-29T01:40:24;99187.90;;;7.20;56.29
65010;BME280;51556;50.002;22.014;2023-04-29T01:45:17;99188.04;;;7.11;56.30
65010;BME280;51556;50.002;22.014;2023-04-29T01:47:42;99184.81;;;7.04;56.42
65010;BME280;51556;50.002;22.014;2023-04-29T01:50:09;99179.67;;;6.96;56.89
65010;BME280;51556;50.002;22.014;2023-04-29T01:52:34;99178.89;;;6.90;56.92
65010;BME280;51556;50.002;22.014;2023-04-29T01:55:00;99182.97;;;6.86;56.98
65010;BME280;51556;50.002;22.014;2023-04-29T01:57:26;99177.42;;;6.81;56.80
65010;BME280;51556;50.002;22.014;2023-04-29T01:59:51;99173.98;;;6.76;57.15
65010;BME280;51556;50.002;22.014;2023-04-29T02:02:17;99180.21;;;6.69;57.18
65010;BME280;51556;50.002;22.014;2023-04-29T02:04:45;99182.22;;;6.63;57.65
65010;BME280;51556;50.002;22.014;2023-04-29T02:07:15;99183.66;;;6.60;57.67
65010;BME280;51556;50.002;22.014;2023-04-29T02:09:40;99178.42;;;6.59;57.56
65010;BME280;51556;50.002;22.014;2023-04-29T02:12:05;99179.69;;;6.56;58.05
65010;BME280;51556;50.002;22.014;2023-04-29T02:14:31;99179.70;;;6.54;57.96
65010;BME280;51556;50.002;22.014;2023-04-29T02:16:58;99176.74;;;6.53;57.94
65010;BME280;51556;50.002;22.014;2023-04-29T02:19:24;99179.23;;;6.49;58.77
65010;BME280;51556;50.002;22.014;2023-04-29T02:21:49;99179.62;;;6.46;58.44
65010;BME280;51556;50.002;22.014;2023-04-29T02:24:14;99181.17;;;6.48;58.19
65010;BME280;51556;50.002;22.014;2023-04-29T02:26:43;99183.65;;;6.46;58.73
65010;BME280;51556;50.002;22.014;2023-04-29T02:29:08;99179.11;;;6.44;58.65
65010;BME280;51556;50.002;22.014;2023-04-29T02:31:34;99182.98;;;6.43;58.73
65010;BME280;51556;50.002;22.014;2023-04-29T02:33:59;99184.05;;;6.41;59.40
65010;BME280;51556;50.002;22.014;2023-04-29T02:36:25;99180.58;;;6.38;59.17
65010;BME280;51556;50.002;22.014;2023-04-29T02:38:50;99183.58;;;6.36;59.83
65010;BME280;51556;50.002;22.014;2023-04-29T02:41:18;99178.02;;;6.33;59.67
65010;BME280;51556;50.002;22.014;2023-04-29T02:43:43;99176.80;;;6.33;59.42
65010;BME280;51556;50.002;22.014;2023-04-29T02:46:09;99175.05;;;6.32;59.69
65010;BME280;51556;50.002;22.014;2023-04-29T02:48:34;99175.42;;;6.32;59.83
65010;BME280;51556;50.002;22.014;2023-04-29T02:51:00;99174.71;;;6.32;59.75
65010;BME280;51556;50.002;22.014;2023-04-29T02:53:25;99175.98;;;6.30;59.83
65010;BME280;51556;50.002;22.014;2023-04-29T02:55:51;99175.98;;;6.30;60.14
65010;BME280;51556;50.002;22.014;2023-04-29T02:58:16;99172.63;;;6.31;60.16
65010;BME280;51556;50.002;22.014;2023-04-29T03:00:41;99170.90;;;6.30;60.46
65010;BME280;51556;50.002;22.014;2023-04-29T03:03:07;99173.13;;;6.33;60.41
65010;BME280;51556;50.002;22.014;2023-04-29T03:05:32;99172.38;;;6.37;59.68
65010;BME280;51556;50.002;22.014;2023-04-29T03:07:58;99167.98;;;6.39;59.94
65010;BME280;51556;50.002;22.014;2023-04-29T03:10:24;99163.41;;;6.41;59.97
65010;BME280;51556;50.002;22.014;2023-04-29T03:12:50;99160.26;;;6.42;60.19
65010;BME280;51556;50.002;22.014;2023-04-29T03:15:15;99158.48;;;6.44;60.10
65010;BME280;51556;50.002;22.014;2023-04-29T03:17:41;99156.36;;;6.46;60.59
65010;BME280;51556;50.002;22.014;2023-04-29T03:20:06;99154.42;;;6.48;60.25
65010;BME280;51556;50.002;22.014;2023-04-29T03:22:32;99155.05;;;6.54;60.08
65010;BME280;51556;50.002;22.014;2023-04-29T03:24:57;99156.79;;;6.56;60.06
65010;BME280;51556;50.002;22.014;2023-04-29T03:27:23;99156.40;;;6.58;60.42
65010;BME280;51556;50.002;22.014;2023-04-29T03:29:48;99155.15;;;6.59;60.68
65010;BME280;51556;50.002;22.014;2023-04-29T03:32:13;99154.10;;;6.61;60.87
65010;BME280;51556;50.002;22.014;2023-04-29T03:34:38;99150.79;;;6.59;60.80
65010;BME280;51556;50.002;22.014;2023-04-29T03:37:04;99156.38;;;6.60;60.52
65010;BME280;51556;50.002;22.014;2023-04-29T03:39:30;99157.23;;;6.61;60.96
65010;BME280;51556;50.002;22.014;2023-04-29T03:41:59;99152.52;;;6.60;60.44
65010;BME280;51556;50.002;22.014;2023-04-29T03:44:25;99155.83;;;6.62;60.17
65010;BME280;51556;50.002;22.014;2023-04-29T03:46:51;99152.48;;;6.63;60.38
65010;BME280;51556;50.002;22.014;2023-04-29T03:49:16;99152.68;;;6.61;60.99
65010;BME280;51556;50.002;22.014;2023-04-29T03:51:42;99151.30;;;6.60;60.49
65010;BME280;51556;50.002;22.014;2023-04-29T03:54:09;99152.16;;;6.61;60.51
65010;BME280;51556;50.002;22.014;2023-04-29T03:56:35;99148.84;;;6.61;60.61
65010;BME280;51556;50.002;22.014;2023-04-29T03:59:04;99151.48;;;6.60;60.91
65010;BME280;51556;50.002;22.014;2023-04-29T04:01:29;99152.52;;;6.60;60.79
65010;BME280;51556;50.002;22.014;2023-04-29T04:03:54;99149.90;;;6.60;60.98
65010;BME280;51556;50.002;22.014;2023-04-29T04:06:20;99151.46;;;6.61;60.83
65010;BME280;51556;50.002;22.014;2023-04-29T04:08:45;99151.98;;;6.61;61.01
65010;BME280;51556;50.002;22.014;2023-04-29T04:11:11;99156.38;;;6.60;61.14
65010;BME280;51556;50.002;22.014;2023-04-29T04:13:39;99156.40;;;6.58;61.15
65010;BME280;51556;50.002;22.014;2023-04-29T04:16:05;99159.89;;;6.58;61.02
65010;BME280;51556;50.002;22.014;2023-04-29T04:18:30;99163.89;;;6.61;61.40
65010;BME280;51556;50.002;22.014;2023-04-29T04:20:56;99163.66;;;6.65;61.34
65010;BME280;51556;50.002;22.014;2023-04-29T04:23:24;99161.14;;;6.69;61.55
65010;BME280;51556;50.002;22.014;2023-04-29T04:25:49;99163.16;;;6.75;61.51
65010;BME280;51556;50.002;22.014;2023-04-29T04:28:23;99161.02;;;6.79;61.95
65010;BME280;51556;50.002;22.014;2023-04-29T04:30:52;99163.57;;;6.84;61.70
65010;BME280;51556;50.002;22.014;2023-04-29T04:33:17;99166.45;;;6.91;61.91
65010;BME280;51556;50.002;22.014;2023-04-29T04:35:43;99164.47;;;6.95;61.84
65010;BME280;51556;50.002;22.014;2023-04-29T04:38:08;99164.58;;;7.00;62.11
65010;BME280;51556;50.002;22.014;2023-04-29T04:40:35;99165.95;;;7.03;62.03
65010;BME280;51556;50.002;22.014;2023-04-29T04:43:01;99160.09;;;7.07;62.12
65010;BME280;51556;50.002;22.014;2023-04-29T04:45:29;99159.86;;;7.10;62.25
65010;BME280;51556;50.002;22.014;2023-04-29T04:47:55;99154.40;;;7.12;62.35
65010;BME280;51556;50.002;22.014;2023-04-29T04:50:26;99155.03;;;7.17;61.88
65010;BME280;51556;50.002;22.014;2023-04-29T04:52:53;99156.36;;;7.22;62.13
65010;BME280;51556;50.002;22.014;2023-04-29T04:55:22;99155.04;;;7.28;61.82
65010;BME280;51556;50.002;22.014;2023-04-29T04:57:48;99155.52;;;7.32;62.13
65010;BME280;51556;50.002;22.014;2023-04-29T05:00:13;99153.17;;;7.36;62.01
65010;BME280;51556;50.002;22.014;2023-04-29T05:02:39;99153.60;;;7.42;62.08
65010;BME280;51556;50.002;22.014;2023-04-29T05:05:04;99151.58;;;7.47;62.06
65010;BME280;51556;50.002;22.014;2023-04-29T05:07:31;99148.54;;;7.51;61.93
65010;BME280;51556;50.002;22.014;2023-04-29T05:10:00;99150.22;;;7.56;61.84
65010;BME280;51556;50.002;22.014;2023-04-29T05:12:26;99148.71;;;7.62;61.86
65010;BME280;51556;50.002;22.014;2023-04-29T05:14:54;99149.45;;;7.70;61.86
65010;BME280;51556;50.002;22.014;2023-04-29T05:17:20;99148.66;;;7.76;61.94
65010;BME280;51556;50.002;22.014;2023-04-29T05:19:45;99146.45;;;7.80;61.78
65010;BME280;51556;50.002;22.014;2023-04-29T05:22:10;99144.88;;;7.89;61.62
65010;BME280;51556;50.002;22.014;2023-04-29T05:24:36;99145.02;;;8.01;61.95
65010;BME280;51556;50.002;22.014;2023-04-29T05:27:01;99145.14;;;8.14;62.18
65010;BME280;51556;50.002;22.014;2023-04-29T05:29:28;99151.66;;;8.30;61.35
65010;BME280;51556;50.002;22.014;2023-04-29T05:31:53;99150.77;;;8.42;60.97
65010;BME280;51556;50.002;22.014;2023-04-29T05:34:19;99153.34;;;8.53;60.54
65010;BME280;51556;50.002;22.014;2023-04-29T05:36:44;99155.49;;;8.67;60.34
65010;BME280;51556;50.002;22.014;2023-04-29T05:39:10;99162.39;;;8.81;59.91
65010;BME280;51556;50.002;22.014;2023-04-29T05:41:35;99160.71;;;8.93;59.96
65010;BME280;51556;50.002;22.014;2023-04-29T05:44:01;99159.61;;;9.03;59.71
65010;BME280;51556;50.002;22.014;2023-04-29T05:46:26;99165.45;;;9.17;59.04
65010;BME280;51556;50.002;22.014;2023-04-29T05:48:51;99165.06;;;9.26;58.81
65010;BME280;51556;50.002;22.014;2023-04-29T05:51:17;99162.50;;;9.37;58.58
65010;BME280;51556;50.002;22.014;2023-04-29T05:53:42;99162.48;;;9.46;57.42
65010;BME280;51556;50.002;22.014;2023-04-29T05:56:08;99164.17;;;9.56;57.16
65010;BME280;51556;50.002;22.014;2023-04-29T05:58:34;99165.06;;;9.68;56.36
65010;BME280;51556;50.002;22.014;2023-04-29T06:00:59;99164.20;;;9.75;55.64
65010;BME280;51556;50.002;22.014;2023-04-29T06:03:25;99165.05;;;9.83;55.90
65010;BME280;51556;50.002;22.014;2023-04-29T06:05:50;99162.81;;;9.88;53.99
65010;BME280;51556;50.002;22.014;2023-04-29T06:08:16;99161.95;;;9.88;55.06
65010;BME280;51556;50.002;22.014;2023-04-29T06:10:41;99163.80;;;9.91;54.49
65010;BME280;51556;50.002;22.014;2023-04-29T06:13:06;99163.19;;;9.94;54.50
65010;BME280;51556;50.002;22.014;2023-04-29T06:15:32;99157.66;;;10.03;54.17
65010;BME280;51556;50.002;22.014;2023-04-29T06:17:57;99152.25;;;10.15;54.57
65010;BME280;51556;50.002;22.014;2023-04-29T06:20:22;99151.99;;;10.26;54.37
65010;BME280;51556;50.002;22.014;2023-04-29T06:22:47;99151.95;;;10.33;54.41
65010;BME280;51556;50.002;22.014;2023-04-29T06:25:13;99154.94;;;10.45;54.48
65010;BME280;51556;50.002;22.014;2023-04-29T06:27:39;99154.75;;;10.58;54.25
65010;BME280;51556;50.002;22.014;2023-04-29T06:30:05;99152.19;;;10.68;54.05
65010;BME280;51556;50.002;22.014;2023-04-29T06:32:30;99151.64;;;10.75;54.28
65010;BME280;51556;50.002;22.014;2023-04-29T06:34:55;99151.23;;;10.82;53.81
65010;BME280;51556;50.002;22.014;2023-04-29T06:37:21;99149.27;;;10.95;53.95
65010;BME280;51556;50.002;22.014;2023-04-29T06:39:46;99153.73;;;11.05;53.65
65010;BME280;51556;50.002;22.014;2023-04-29T06:42:11;99151.46;;;11.15;53.33
65010;BME280;51556;50.002;22.014;2023-04-29T06:44:37;99150.14;;;11.28;53.30
65010;BME280;51556;50.002;22.014;2023-04-29T06:47:03;99143.87;;;11.38;52.77
65010;BME280;51556;50.002;22.014;2023-04-29T06:49:28;99146.23;;;11.47;52.43
65010;BME280;51556;50.002;22.014;2023-04-29T06:51:53;99145.95;;;11.54;52.11
65010;BME280;51556;50.002;22.014;2023-04-29T06:54:19;99141.86;;;11.66;51.97
65010;BME280;51556;50.002;22.014;2023-04-29T06:56:44;99142.67;;;11.74;51.69
65010;BME280;51556;50.002;22.014;2023-04-29T06:59:09;99147.79;;;11.80;51.87
65010;BME280;51556;50.002;22.014;2023-04-29T07:01:36;99149.21;;;11.85;51.15
65010;BME280;51556;50.002;22.014;2023-04-29T07:04:02;99148.83;;;11.81;51.04
65010;BME280;51556;50.002;22.014;2023-04-29T07:06:28;99145.75;;;11.83;51.19
65010;BME280;51556;50.002;22.014;2023-04-29T07:08:53;99143.77;;;11.89;51.51
65010;BME280;51556;50.002;22.014;2023-04-29T07:11:18;99140.11;;;11.97;51.08
65010;BME280;51556;50.002;22.014;2023-04-29T07:13:44;99136.61;;;12.01;50.72
65010;BME280;51556;50.002;22.014;2023-04-29T07:16:15;99140.40;;;12.10;50.91
65010;BME280;51556;50.002;22.014;2023-04-29T07:18:42;99138.39;;;12.17;49.79
65010;BME280;51556;50.002;22.014;2023-04-29T07:21:08;99140.39;;;12.20;50.12
65010;BME280;51556;50.002;22.014;2023-04-29T07:23:33;99138.66;;;12.28;50.46
65010;BME280;51556;50.002;22.014;2023-04-29T07:25:58;99142.54;;;12.39;50.26
65010;BME280;51556;50.002;22.014;2023-04-29T07:28:35;99139.88;;;12.49;49.68
65010;BME280;51556;50.002;22.014;2023-04-29T07:31:01;99139.08;;;12.60;50.14
65010;BME280;51556;50.002;22.014;2023-04-29T07:33:26;99137.07;;;12.71;49.46
65010;BME280;51556;50.002;22.014;2023-04-29T07:35:51;99138.20;;;12.79;49.72
65010;BME280;51556;50.002;22.014;2023-04-29T07:38:17;99134.98;;;12.85;49.36
65010;BME280;51556;50.002;22.014;2023-04-29T07:40:42;99129.41;;;12.92;49.06
65010;BME280;51556;50.002;22.014;2023-04-29T07:43:07;99130.09;;;12.97;49.71
65010;BME280;51556;50.002;22.014;2023-04-29T07:45:33;99134.31;;;13.06;48.85
65010;BME280;51556;50.002;22.014;2023-04-29T07:47:58;99131.46;;;13.11;48.18
65010;BME280;51556;50.002;22.014;2023-04-29T07:50:24;99131.65;;;13.16;48.09
65010;BME280;51556;50.002;22.014;2023-04-29T07:52:52;99131.95;;;13.22;48.65
65010;BME280;51556;50.002;22.014;2023-04-29T07:55:22;99136.52;;;13.23;49.03
65010;BME280;51556;50.002;22.014;2023-04-29T07:57:56;99131.86;;;13.29;49.50
65010;BME280;51556;50.002;22.014;2023-04-29T08:00:22;99134.11;;;13.43;49.08
65010;BME280;51556;50.002;22.014;2023-04-29T08:02:51;99134.15;;;13.55;48.87
65010;BME280;51556;50.002;22.014;2023-04-29T08:05:17;99133.68;;;13.66;48.66
65010;BME280;51556;50.002;22.014;2023-04-29T08:10:39;99132.77;;;13.92;48.04
65010;BME280;51556;50.002;22.014;2023-04-29T08:13:09;99129.77;;;14.04;48.31
65010;BME280;51556;50.002;22.014;2023-04-29T08:15:35;99123.45;;;14.19;47.84
65010;BME280;51556;50.002;22.014;2023-04-29T08:18:00;99122.66;;;14.33;46.75
65010;BME280;51556;50.002;22.014;2023-04-29T08:20:29;99116.39;;;14.43;45.13
65010;BME280;51556;50.002;22.014;2023-04-29T08:22:57;99119.93;;;14.54;46.30
65010;BME280;51556;50.002;22.014;2023-04-29T08:25:51;99119.90;;;14.71;45.49
65010;BME280;51556;50.002;22.014;2023-04-29T08:28:16;99121.44;;;14.83;46.02
65010;BME280;51556;50.002;22.014;2023-04-29T08:30:41;99118.86;;;15.00;46.65
65010;BME280;51556;50.002;22.014;2023-04-29T08:33:09;99117.73;;;15.20;45.21
65010;BME280;51556;50.002;22.014;2023-04-29T08:35:37;99119.21;;;15.36;45.47
65010;BME280;51556;50.002;22.014;2023-04-29T08:38:02;99119.79;;;15.51;44.98
65010;BME280;51556;50.002;22.014;2023-04-29T08:40:29;99120.46;;;15.66;45.76
65010;BME280;51556;50.002;22.014;2023-04-29T08:42:56;99122.27;;;15.83;44.91
65010;BME280;51556;50.002;22.014;2023-04-29T08:45:21;99121.02;;;15.93;43.95
65010;BME280;51556;50.002;22.014;2023-04-29T08:47:48;99124.51;;;16.01;43.24
65010;BME280;51556;50.002;22.014;2023-04-29T08:50:15;99125.70;;;16.06;43.23
65010;BME280;51556;50.002;22.014;2023-04-29T08:52:44;99122.58;;;16.00;42.18
65010;BME280;51556;50.002;22.014;2023-04-29T08:55:09;99122.46;;;15.99;42.52
65010;BME280;51556;50.002;22.014;2023-04-29T08:57:35;99125.95;;;16.04;43.07
65010;BME280;51556;50.002;22.014;2023-04-29T09:00:09;99121.69;;;16.08;42.64
65010;BME280;51556;50.002;22.014;2023-04-29T09:02:46;99122.61;;;16.11;42.82
65010;BME280;51556;50.002;22.014;2023-04-29T09:05:14;99120.22;;;16.12;42.32
65010;BME280;51556;50.002;22.014;2023-04-29T09:07:39;99120.06;;;16.16;42.12
65010;BME280;51556;50.002;22.014;2023-04-29T09:10:05;99119.77;;;16.14;41.71
65010;BME280;51556;50.002;22.014;2023-04-29T09:12:34;99116.34;;;16.18;42.44
65010;BME280;51556;50.002;22.014;2023-04-29T09:15:03;99117.90;;;16.23;42.31
65010;BME280;51556;50.002;22.014;2023-04-29T09:17:44;99118.53;;;16.31;42.75
65010;BME280;51556;50.002;22.014;2023-04-29T09:22:56;99119.86;;;16.46;41.83
65010;BME280;51556;50.002;22.014;2023-04-29T09:25:22;99120.34;;;16.53;42.09
65010;BME280;51556;50.002;22.014;2023-04-29T09:30:47;99115.10;;;16.65;41.79
65010;BME280;51556;50.002;22.014;2023-04-29T09:33:14;99116.84;;;16.72;41.15
65010;BME280;51556;50.002;22.014;2023-04-29T09:35:41;99115.91;;;16.73;40.64
65010;BME280;51556;50.002;22.014;2023-04-29T09:38:07;99114.91;;;16.69;40.38
65010;BME280;51556;50.002;22.014;2023-04-29T09:40:33;99108.54;;;16.75;41.28
65010;BME280;51556;50.002;22.014;2023-04-29T09:42:59;99108.55;;;16.91;41.14
65010;BME280;51556;50.002;22.014;2023-04-29T09:45:37;99100.58;;;17.03;40.80
65010;BME280;51556;50.002;22.014;2023-04-29T09:48:04;99097.95;;;17.18;40.49
65010;BME280;51556;50.002;22.014;2023-04-29T09:50:33;99096.87;;;17.30;40.72
65010;BME280;51556;50.002;22.014;2023-04-29T09:53:01;99093.58;;;17.45;40.78
65010;BME280;51556;50.002;22.014;2023-04-29T09:55:26;99093.79;;;17.56;39.28
65010;BME280;51556;50.002;22.014;2023-04-29T09:57:53;99086.03;;;17.58;38.79
65010;BME280;51556;50.002;22.014;2023-04-29T10:00:19;99086.25;;;17.70;38.95
65010;BME280;51556;50.002;22.014;2023-04-29T10:02:45;99077.70;;;17.79;39.21
65010;BME280;51556;50.002;22.014;2023-04-29T10:05:11;99080.40;;;17.90;38.84
65010;BME280;51556;50.002;22.014;2023-04-29T10:07:40;99074.07;;;17.97;38.99
65010;BME280;51556;50.002;22.014;2023-04-29T10:10:09;99072.22;;;18.05;39.30
65010;BME280;51556;50.002;22.014;2023-04-29T10:12:35;99066.99;;;18.12;37.48
65010;BME280;51556;50.002;22.014;2023-04-29T10:15:48;99068.44;;;18.20;38.90
65010;BME280;51556;50.002;22.014;2023-04-29T10:17:53;99067.25;;;18.39;39.17
65010;BME280;51556;50.002;22.014;2023-04-29T10:20:22;99062.95;;;18.56;38.56
65010;BME280;51556;50.002;22.014;2023-04-29T10:22:51;99061.35;;;18.62;36.91
65010;BME280;51556;50.002;22.014;2023-04-29T10:25:18;99057.70;;;18.43;36.19
65010;BME280;51556;50.002;22.014;2023-04-29T10:27:44;99062.11;;;18.30;37.67
65010;BME280;51556;50.002;22.014;2023-04-29T10:30:13;99058.08;;;18.32;37.97
65010;BME280;51556;50.002;22.014;2023-04-29T10:32:39;99059.48;;;18.44;37.78
65010;BME280;51556;50.002;22.014;2023-04-29T10:35:06;99059.56;;;18.54;37.68
65010;BME280;51556;50.002;22.014;2023-04-29T10:37:34;99054.16;;;18.66;37.17
65010;BME280;51556;50.002;22.014;2023-04-29T10:52:55;99037.78;;;19.23;36.11
65010;BME280;51556;50.002;22.014;2023-04-29T10:55:24;99027.71;;;19.43;35.73
65010;BME280;51556;50.002;22.014;2023-04-29T10:57:53;99027.77;;;19.61;35.39
65010;BME280;51556;50.002;22.014;2023-04-29T11:00:21;99024.69;;;19.85;35.93
65010;BME280;51556;50.002;22.014;2023-04-29T11:02:47;99026.27;;;20.04;35.43
65010;BME280;51556;50.002;22.014;2023-04-29T11:05:12;99028.94;;;20.19;34.84
65010;BME280;51556;50.002;22.014;2023-04-29T11:07:38;99023.76;;;20.34;34.40
65010;BME280;51556;50.002;22.014;2023-04-29T11:10:04;99018.27;;;20.51;34.85
65010;BME280;51556;50.002;22.014;2023-04-29T11:12:30;99019.88;;;20.66;33.35
65010;BME280;51556;50.002;22.014;2023-04-29T11:14:56;99015.21;;;20.66;33.39
65010;BME280;51556;50.002;22.014;2023-04-29T11:17:33;99019.35;;;20.71;33.02
65010;BME280;51556;50.002;22.014;2023-04-29T11:19:59;99018.95;;;20.81;33.81
65010;BME280;51556;50.002;22.014;2023-04-29T11:22:25;99022.95;;;20.93;33.61
65010;BME280;51556;50.002;22.014;2023-04-29T11:27:16;99016.23;;;21.03;33.23
65010;BME280;51556;50.002;22.014;2023-04-29T11:29:42;99018.50;;;21.10;32.77
65010;BME280;51556;50.002;22.014;2023-04-29T11:32:09;99014.48;;;21.22;32.59
65010;BME280;51556;50.002;22.014;2023-04-29T11:34:34;99012.50;;;21.45;32.74
65010;BME280;51556;50.002;22.014;2023-04-29T11:36:59;99003.69;;;21.63;32.46
65010;BME280;51556;50.002;22.014;2023-04-29T11:39:25;99010.79;;;21.83;32.44
65010;BME280;51556;50.002;22.014;2023-04-29T11:41:50;99007.95;;;22.01;32.68
65010;BME280;51556;50.002;22.014;2023-04-29T11:44:19;99008.23;;;22.12;30.49
65010;BME280;51556;50.002;22.014;2023-04-29T11:46:46;99010.61;;;22.04;30.48
65010;BME280;51556;50.002;22.014;2023-04-29T11:49:11;99004.16;;;21.96;30.05
65010;BME280;51556;50.002;22.014;2023-04-29T11:51:37;99000.62;;;21.89;30.59
65010;BME280;51556;50.002;22.014;2023-04-29T11:54:02;99003.09;;;21.87;30.95
65010;BME280;51556;50.002;22.014;2023-04-29T11:56:27;99000.68;;;21.95;31.12
65010;BME280;51556;50.002;22.014;2023-04-29T11:58:53;99000.47;;;21.89;30.81
65010;BME280;51556;50.002;22.014;2023-04-29T12:01:20;99000.71;;;21.76;30.53
65010;BME280;51556;50.002;22.014;2023-04-29T12:03:47;98999.75;;;21.68;30.95
65010;BME280;51556;50.002;22.014;2023-04-29T12:06:13;98997.94;;;21.75;30.71
65010;BME280;51556;50.002;22.014;2023-04-29T12:08:39;98995.60;;;21.82;30.76
65010;BME280;51556;50.002;22.014;2023-04-29T12:11:05;99000.15;;;21.95;31.16
65010;BME280;51556;50.002;22.014;2023-04-29T12:13:31;98997.64;;;21.90;31.55
65010;BME280;51556;50.002;22.014;2023-04-29T12:15:59;98998.10;;;21.87;31.31
65010;BME280;51556;50.002;22.014;2023-04-29T12:18:24;99004.39;;;21.80;30.40
65010;BME280;51556;50.002;22.014;2023-04-29T12:20:51;98999.01;;;21.66;31.15
65010;BME280;51556;50.002;22.014;2023-04-29T12:23:20;99003.98;;;21.55;31.91
65010;BME280;51556;50.002;22.014;2023-04-29T12:25:51;98998.48;;;21.48;31.69
65010;BME280;51556;50.002;22.014;2023-04-29T12:28:17;98996.29;;;21.44;31.38
65010;BME280;51556;50.002;22.014;2023-04-29T12:30:43;98996.80;;;21.37;31.49
65010;BME280;51556;50.002;22.014;2023-04-29T12:33:09;98993.16;;;21.30;31.22
65010;BME280;51556;50.002;22.014;2023-04-29T12:35:35;98993.97;;;21.26;31.72
65010;BME280;51556;50.002;22.014;2023-04-29T12:38:04;98994.14;;;21.24;31.60
65010;BME280;51556;50.002;22.014;2023-04-29T12:40:30;98991.88;;;21.16;31.49
65010;BME280;51556;50.002;22.014;2023-04-29T12:42:56;98988.35;;;21.08;31.77
65010;BME280;51556;50.002;22.014;2023-04-29T12:45:28;98988.90;;;21.03;31.66
65010;BME280;51556;50.002;22.014;2023-04-29T12:47:57;98989.22;;;20.99;31.72
65010;BME280;51556;50.002;22.014;2023-04-29T12:50:36;98984.73;;;20.99;31.73
65010;BME280;51556;50.002;22.014;2023-04-29T12:53:02;98983.55;;;20.91;31.80
65010;BME280;51556;50.002;22.014;2023-04-29T12:55:30;98981.59;;;20.88;31.89
65010;BME280;51556;50.002;22.014;2023-04-29T12:57:56;98981.51;;;20.84;32.06
65010;BME280;51556;50.002;22.014;2023-04-29T13:00:21;98977.73;;;20.78;31.91
65010;BME280;51556;50.002;22.014;2023-04-29T13:02:46;98973.66;;;20.70;32.33
65010;BME280;51556;50.002;22.014;2023-04-29T13:05:12;98978.05;;;20.61;32.50
65010;BME280;51556;50.002;22.014;2023-04-29T13:07:37;98973.75;;;20.53;32.15
65010;BME280;51556;50.002;22.014;2023-04-29T13:10:03;98974.73;;;20.47;32.77
65010;BME280;51556;50.002;22.014;2023-04-29T13:12:30;98971.47;;;20.46;32.24
65010;BME280;51556;50.002;22.014;2023-04-29T13:15:04;98970.14;;;20.42;31.74
65010;BME280;51556;50.002;22.014;2023-04-29T13:17:30;98968.84;;;20.32;31.99
65010;BME280;51556;50.002;22.014;2023-04-29T13:19:56;98973.45;;;20.25;32.29
65010;BME280;51556;50.002;22.014;2023-04-29T13:22:24;98973.21;;;20.24;32.78
65010;BME280;51556;50.002;22.014;2023-04-29T13:24:50;98973.80;;;20.30;33.19